Time;durP1;ratioP1;P1;durP2;ratioP2;P2;SDS_P1;SDS_P2;PMS_P1;PMS_P2;Temp;Humidity;BMP_temperature;BMP_pressure;BME280_temperature;BME280_humidity;BME280_pressure;Samples;Min_cycle;Max_cycle;Signal;HPM_P1;HPM_P2
2023/06/04 03:08:33;;;;;;;1999.90;999.90;;;;;;;;;;5525856;23;20628;-73
2023/06/04 03:11:19;;;;;;;1999.90;999.90;;;;;;;;;;4908800;29;20225;-69
2023/06/04 03:14:04;;;;;;;1999.90;999.90;;;;;;;;;;4912975;29;20241;-73
2023/06/04 03:16:51;;;;;;;1999.90;999.90;;;;;;;;;;4911986;29;20224;-72
2023/06/04 03:19:36;;;;;;;1999.90;999.90;;;;;;;;;;4907426;29;20230;-73
2023/06/04 03:22:21;;;;;;;1999.90;999.90;;;;;;;;;;4913691;29;20695;-72
2023/06/04 03:25:08;;;;;;;1999.90;999.90;;;;;;;;;;4914566;29;20280;-73
2023/06/04 03:27:53;;;;;;;1999.90;999.90;;;;;;;;;;4908487;29;20240;-72
2023/06/04 03:30:38;;;;;;;1999.90;999.90;;;;;;;;;;4907100;29;20292;-72
2023/06/04 03:33:23;;;;;;;1999.90;999.90;;;;;;;;;;4914063;29;20213;-72
2023/06/04 03:36:08;;;;;;;1999.90;999.90;;;;;;;;;;4914288;29;20297;-72
2023/06/04 03:38:53;;;;;;;1999.90;999.90;;;;;;;;;;4909507;29;20236;-72
2023/06/04 03:41:40;;;;;;;1999.90;999.90;;;;;;;;;;4915353;29;20216;-70
2023/06/04 03:44:25;;;;;;;1999.90;999.90;;;;;;;;;;4916276;29;20292;-72
2023/06/04 03:47:10;;;;;;;1999.90;999.90;;;;;;;;;;4910589;29;20217;-66
2023/06/04 03:49:54;;;;;;;1999.90;999.90;;;;;;;;;;4911864;29;20598;-69
2023/06/04 03:52:39;;;;;;;1999.90;999.90;;;;;;;;;;4924945;29;20322;-70
2023/06/04 03:55:24;;;;;;;1999.90;999.90;;;;;;;;;;4927957;29;20330;-70
2023/06/04 03:58:11;;;;;;;1999.90;999.90;;;;;;;;;;4930657;29;20247;-71
2023/06/04 04:00:57;;;;;;;1999.90;999.90;;;;;;;;;;4896751;29;20228;-70
2023/06/04 04:03:42;;;;;;;1999.90;999.90;;;;;;;;;;4896684;29;20214;-70
2023/06/04 04:06:27;;;;;;;1999.90;999.90;;;;;;;;;;4897026;29;20292;-72
2023/06/04 04:09:12;;;;;;;1999.90;999.90;;;;;;;;;;4896494;29;20739;-71
2023/06/04 04:11:57;;;;;;;1999.90;999.90;;;;;;;;;;4898920;29;20218;-69
2023/06/04 04:14:43;;;;;;;1999.90;999.90;;;;;;;;;;4919505;29;20249;-70
2023/06/04 04:17:28;;;;;;;1999.90;999.90;;;;;;;;;;4922547;29;20213;-69
2023/06/04 04:20:13;;;;;;;1999.90;999.90;;;;;;;;;;4922275;29;20213;-71
2023/06/04 04:22:58;;;;;;;1999.90;999.90;;;;;;;;;;4932039;29;20715;-71
2023/06/04 04:25:43;;;;;;;1999.90;999.90;;;;;;;;;;4910350;29;20210;-70
2023/06/04 04:28:29;;;;;;;1999.90;999.90;;;;;;;;;;4924815;29;20263;-70
2023/06/04 04:31:17;;;;;;;1999.90;999.90;;;;;;;;;;4915582;29;20217;-72
2023/06/04 04:34:08;;;;;;;1999.90;999.90;;;;;;;;;;4923311;29;20226;-70
2023/06/04 04:36:54;;;;;;;1999.90;999.90;;;;;;;;;;4920108;29;20210;-71
2023/06/04 04:39:38;;;;;;;1999.90;999.90;;;;;;;;;;4929234;29;20600;-70
2023/06/04 04:42:23;;;;;;;1999.90;999.90;;;;;;;;;;4913057;29;20226;-71
2023/06/04 04:45:09;;;;;;;1999.90;999.90;;;;;;;;;;4908786;29;20218;-70
2023/06/04 04:47:55;;;;;;;1999.90;999.90;;;;;;;;;;4912233;29;20233;-71
2023/06/04 04:50:40;;;;;;;1999.90;999.90;;;;;;;;;;4921787;29;20501;-71
2023/06/04 04:53:27;;;;;;;1999.90;999.90;;;;;;;;;;4911060;29;20219;-71
2023/06/04 04:56:12;;;;;;;1999.90;999.90;;;;;;;;;;4906913;29;20211;-71
2023/06/04 04:58:57;;;;;;;1999.90;999.90;;;;;;;;;;4916124;29;20363;-71
2023/06/04 05:01:41;;;;;;;1999.90;999.90;;;;;;;;;;4909603;29;20274;-71
2023/06/04 05:04:28;;;;;;;1999.90;999.90;;;;;;;;;;4915065;29;21650;-71
2023/06/04 05:07:13;;;;;;;1999.90;999.90;;;;;;;;;;4916102;29;20206;-71
2023/06/04 05:09:58;;;;;;;1999.90;999.90;;;;;;;;;;4912645;29;20210;-70
2023/06/04 05:12:51;;;;;;;1999.90;999.90;;;;;;;;;;4916324;29;20713;-71
2023/06/04 05:15:36;;;;;;;1999.90;999.90;;;;;;;;;;4905740;29;20234;-70
2023/06/04 05:18:21;;;;;;;1999.90;999.90;;;;;;;;;;4907255;29;20283;-71
2023/06/04 05:21:08;;;;;;;1999.90;999.90;;;;;;;;;;4910715;29;20215;-71
2023/06/04 05:23:53;;;;;;;1999.90;999.90;;;;;;;;;;4906949;29;20699;-71
2023/06/04 05:26:39;;;;;;;1999.90;999.90;;;;;;;;;;4912172;29;20270;-70
2023/06/04 05:29:24;;;;;;;1999.90;999.90;;;;;;;;;;4911371;29;20274;-71
2023/06/04 05:32:09;;;;;;;1999.90;999.90;;;;;;;;;;4906565;29;20217;-70
2023/06/04 05:34:56;;;;;;;1999.90;999.90;;;;;;;;;;4910067;29;20592;-71
2023/06/04 05:37:45;;;;;;;1999.90;999.90;;;;;;;;;;4914371;29;20607;-71
2023/06/04 05:40:30;;;;;;;1999.90;999.90;;;;;;;;;;4914137;29;20218;-67
2023/06/04 05:43:16;;;;;;;1999.90;999.90;;;;;;;;;;4915240;29;20508;-68
2023/06/04 05:46:01;;;;;;;1999.90;999.90;;;;;;;;;;4906735;29;20205;-69
2023/06/04 05:48:45;;;;;;;1999.90;999.90;;;;;;;;;;4917897;29;20781;-69
2023/06/04 05:51:31;;;;;;;1999.90;999.90;;;;;;;;;;4918481;29;20213;-72
2023/06/04 05:54:17;;;;;;;1999.90;999.90;;;;;;;;;;4932590;29;20251;-72
2023/06/04 05:57:02;;;;;;;1999.90;999.90;;;;;;;;;;4919931;29;20302;-72
2023/06/04 05:59:47;;;;;;;1999.90;999.90;;;;;;;;;;4910728;29;20477;-72
2023/06/04 06:02:32;;;;;;;1999.90;999.90;;;;;;;;;;4934129;29;20295;-72
2023/06/04 06:05:17;;;;;;;1999.90;999.90;;;;;;;;;;4912155;29;20208;-72
2023/06/04 06:08:02;;;;;;;1999.90;999.90;;;;;;;;;;4903276;29;20416;-67
2023/06/04 06:10:49;;;;;;;1999.90;999.90;;;;;;;;;;4911716;29;20608;-70
2023/06/04 06:13:35;;;;;;;1999.90;999.90;;;;;;;;;;4902616;29;20217;-69
2023/06/04 06:16:19;;;;;;;1999.90;999.90;;;;;;;;;;4898312;29;20593;-69
2023/06/04 06:19:04;;;;;;;1999.90;999.90;;;;;;;;;;4910116;29;20226;-69
2023/06/04 06:21:50;;;;;;;1999.90;999.90;;;;;;;;;;4907741;29;20293;-68
2023/06/04 06:24:35;;;;;;;1999.90;999.90;;;;;;;;;;4932389;29;20204;-71
2023/06/04 06:27:21;;;;;;;1999.90;999.90;;;;;;;;;;4917719;29;20210;-71
2023/06/04 06:30:08;;;;;;;1999.90;999.90;;;;;;;;;;4903167;29;20210;-71
2023/06/04 06:32:54;;;;;;;1999.90;999.90;;;;;;;;;;4918093;29;20413;-71
2023/06/04 06:35:39;;;;;;;1999.90;999.90;;;;;;;;;;4915534;29;20294;-72
2023/06/04 06:38:24;;;;;;;1999.90;999.90;;;;;;;;;;4911679;29;20233;-70
2023/06/04 06:41:09;;;;;;;1999.90;999.90;;;;;;;;;;4912130;29;20350;-72
2023/06/04 06:43:55;;;;;;;1999.90;999.90;;;;;;;;;;4907050;29;20298;-72
2023/06/04 06:46:40;;;;;;;1999.90;999.90;;;;;;;;;;4907739;29;20709;-73
2023/06/04 06:49:25;;;;;;;1999.90;999.90;;;;;;;;;;4922530;29;20432;-71
2023/06/04 06:52:10;;;;;;;1999.90;999.90;;;;;;;;;;4916031;29;20707;-72
2023/06/04 06:54:55;;;;;;;1999.90;999.90;;;;;;;;;;4909148;29;20241;-70
2023/06/04 06:57:40;;;;;;;1999.90;999.90;;;;;;;;;;4914915;29;20237;-71
2023/06/04 07:00:27;;;;;;;1999.90;999.90;;;;;;;;;;4904109;29;20216;-71
2023/06/04 07:03:12;;;;;;;1999.90;999.90;;;;;;;;;;4909670;29;20675;-70
2023/06/04 07:05:57;;;;;;;1999.90;999.90;;;;;;;;;;4914812;29;20206;-71
2023/06/04 07:08:42;;;;;;;1999.90;999.90;;;;;;;;;;4914214;29;20361;-70
2023/06/04 07:11:27;;;;;;;1999.90;999.90;;;;;;;;;;4908323;29;20224;-71
2023/06/04 07:14:12;;;;;;;1999.90;999.90;;;;;;;;;;4934578;29;20686;-71
2023/06/04 07:16:58;;;;;;;1999.90;999.90;;;;;;;;;;4919092;29;20216;-73
2023/06/04 07:19:44;;;;;;;1999.90;999.90;;;;;;;;;;4923045;29;20437;-73
2023/06/04 07:22:28;;;;;;;1999.90;999.90;;;;;;;;;;4909013;29;20209;-72
2023/06/04 07:25:13;;;;;;;1999.90;999.90;;;;;;;;;;4906501;29;20218;-73
2023/06/04 07:27:58;;;;;;;1999.90;999.90;;;;;;;;;;4914616;29;20318;-71
2023/06/04 07:30:45;;;;;;;1999.90;999.90;;;;;;;;;;4920521;29;20205;-74
2023/06/04 07:33:32;;;;;;;1999.90;999.90;;;;;;;;;;4911380;29;20251;-74
2023/06/04 07:36:17;;;;;;;1999.90;999.90;;;;;;;;;;4910410;29;20235;-71
2023/06/04 07:39:04;;;;;;;1999.90;999.90;;;;;;;;;;4904857;29;20474;-72
2023/06/04 07:41:49;;;;;;;1999.90;999.90;;;;;;;;;;4926029;29;20627;-73
2023/06/04 07:44:34;;;;;;;1999.90;999.90;;;;;;;;;;4932822;29;20294;-72
2023/06/04 07:47:18;;;;;;;1999.90;999.90;;;;;;;;;;4924870;29;20220;-72
2023/06/04 07:50:05;;;;;;;1999.90;999.90;;;;;;;;;;4914966;29;20202;-72
2023/06/04 07:52:50;;;;;;;1999.90;999.90;;;;;;;;;;4928602;29;20589;-73
2023/06/04 07:55:35;;;;;;;1999.90;999.90;;;;;;;;;;4922141;29;20240;-72
2023/06/04 07:58:20;;;;;;;1999.90;999.90;;;;;;;;;;4937706;29;20261;-71
2023/06/04 08:01:05;;;;;;;1999.90;999.90;;;;;;;;;;4926091;29;20593;-73
2023/06/04 08:03:50;;;;;;;1999.90;999.90;;;;;;;;;;4935957;29;21124;-71
2023/06/04 08:06:39;;;;;;;1999.90;999.90;;;;;;;;;;4900238;29;20343;-72
2023/06/04 08:09:24;;;;;;;1999.90;999.90;;;;;;;;;;4912803;29;20340;-70
2023/06/04 08:12:09;;;;;;;1999.90;999.90;;;;;;;;;;4924352;29;20214;-71
2023/06/04 08:14:57;;;;;;;1999.90;999.90;;;;;;;;;;4930294;29;20206;-72
2023/06/04 08:17:41;;;;;;;1999.90;999.90;;;;;;;;;;4937707;29;20343;-71
2023/06/04 08:20:26;;;;;;;1999.90;999.90;;;;;;;;;;4917971;29;20214;-73
2023/06/04 08:23:13;;;;;;;1999.90;999.90;;;;;;;;;;4918491;29;20420;-74
2023/06/04 08:25:58;;;;;;;1999.90;999.90;;;;;;;;;;4918940;29;20201;-74
2023/06/04 08:28:43;;;;;;;1999.90;999.90;;;;;;;;;;4918514;29;20314;-74
2023/06/04 08:31:28;;;;;;;1999.90;999.90;;;;;;;;;;4918543;29;20250;-73
2023/06/04 08:34:13;;;;;;;1999.90;999.90;;;;;;;;;;4918638;29;20217;-73
2023/06/04 08:36:58;;;;;;;1999.90;999.90;;;;;;;;;;4918227;29;20282;-73
2023/06/04 08:39:44;;;;;;;1999.90;999.90;;;;;;;;;;4918462;29;20225;-73
2023/06/04 08:42:30;;;;;;;1999.90;999.90;;;;;;;;;;4918065;29;20265;-73
2023/06/04 08:45:16;;;;;;;1999.90;999.90;;;;;;;;;;4918369;29;20198;-72
2023/06/04 08:48:01;;;;;;;1999.90;999.90;;;;;;;;;;4918240;29;20226;-73
2023/06/04 08:50:48;;;;;;;1999.90;999.90;;;;;;;;;;4918713;29;20218;-73
2023/06/04 08:53:33;;;;;;;1999.90;999.90;;;;;;;;;;4917971;29;20449;-73
2023/06/04 08:56:20;;;;;;;1999.90;999.90;;;;;;;;;;4918085;29;20269;-73
2023/06/04 08:59:06;;;;;;;1999.90;999.90;;;;;;;;;;4917948;29;20242;-73
2023/06/04 09:01:52;;;;;;;1999.90;999.90;;;;;;;;;;4917942;29;20237;-75
2023/06/04 09:04:37;;;;;;;1999.90;999.90;;;;;;;;;;4917892;29;20202;-74
2023/06/04 09:07:22;;;;;;;1999.90;999.90;;;;;;;;;;4916868;29;20206;-72
2023/06/04 09:10:08;;;;;;;1999.90;999.90;;;;;;;;;;4917643;29;20424;-74
2023/06/04 09:12:57;;;;;;;1999.90;999.90;;;;;;;;;;4917722;29;20293;-73
2023/06/04 09:15:42;;;;;;;1999.90;999.90;;;;;;;;;;4917804;29;20598;-72
2023/06/04 09:18:27;;;;;;;1999.90;999.90;;;;;;;;;;4917530;29;20305;-73
2023/06/04 09:21:12;;;;;;;1999.90;999.90;;;;;;;;;;4917625;29;20265;-74
2023/06/04 09:23:58;;;;;;;1999.90;999.90;;;;;;;;;;4917803;29;20210;-72
2023/06/04 09:26:43;;;;;;;1999.90;999.90;;;;;;;;;;4917508;29;20206;-73
2023/06/04 09:29:30;;;;;;;1999.90;999.90;;;;;;;;;;4917478;29;20265;-72
2023/06/04 09:32:15;;;;;;;1999.90;999.90;;;;;;;;;;4917491;29;20285;-72
2023/06/04 09:35:09;;;;;;;1999.90;999.90;;;;;;;;;;4917539;29;20209;-71
2023/06/04 09:37:55;;;;;;;1999.90;999.90;;;;;;;;;;4917109;29;20244;-72
2023/06/04 09:40:41;;;;;;;1999.90;999.90;;;;;;;;;;4917260;29;20698;-72
2023/06/04 09:43:25;;;;;;;1999.90;999.90;;;;;;;;;;4917224;29;20587;-72
2023/06/04 09:46:12;;;;;;;1999.90;999.90;;;;;;;;;;4917271;29;20212;-71
2023/06/04 09:49:01;;;;;;;1999.90;999.90;;;;;;;;;;4916925;29;20257;-72
2023/06/04 09:51:48;;;;;;;1999.90;999.90;;;;;;;;;;4916944;29;20248;-72
2023/06/04 09:54:36;;;;;;;1999.90;999.90;;;;;;;;;;4917000;29;20211;-76
2023/06/04 09:57:21;;;;;;;1999.90;999.90;;;;;;;;;;4916350;29;20991;-72
2023/06/04 10:00:11;;;;;;;1999.90;999.90;;;;;;;;;;4916642;29;20603;-72
2023/06/04 10:02:59;;;;;;;1999.90;999.90;;;;;;;;;;4917228;29;20208;-73
2023/06/04 10:05:44;;;;;;;1999.90;999.90;;;;;;;;;;4917308;29;20706;-73
2023/06/04 10:08:30;;;;;;;1999.90;999.90;;;;;;;;;;4916884;29;20465;-73
2023/06/04 10:11:16;;;;;;;1999.90;999.90;;;;;;;;;;4916481;29;20807;-73
2023/06/04 10:14:04;;;;;;;1999.90;999.90;;;;;;;;;;4916867;29;20404;-73
2023/06/04 10:16:50;;;;;;;1999.90;999.90;;;;;;;;;;4916498;29;20223;-73
2023/06/04 10:19:38;;;;;;;1999.90;999.90;;;;;;;;;;4916308;29;20232;-72
2023/06/04 10:22:24;;;;;;;1999.90;999.90;;;;;;;;;;4916312;29;20211;-72
2023/06/04 10:25:10;;;;;;;1999.90;999.90;;;;;;;;;;4916656;29;20209;-73
2023/06/04 10:27:55;;;;;;;1999.90;999.90;;;;;;;;;;4916223;29;20830;-74
2023/06/04 10:30:40;;;;;;;1999.90;999.90;;;;;;;;;;4916093;29;20552;-75
2023/06/04 10:33:26;;;;;;;1999.90;999.90;;;;;;;;;;4916515;29;20217;-73
2023/06/04 10:36:19;;;;;;;1999.90;999.90;;;;;;;;;;4916180;29;20232;-74
2023/06/04 10:39:05;;;;;;;1999.90;999.90;;;;;;;;;;4916330;29;20229;-72
2023/06/04 10:41:57;;;;;;;1999.90;999.90;;;;;;;;;;4916138;29;20211;-73
2023/06/04 10:44:46;;;;;;;1999.90;999.90;;;;;;;;;;4916077;29;20231;-73
2023/06/04 10:47:33;;;;;;;1999.90;999.90;;;;;;;;;;4915345;29;20424;-73
2023/06/04 10:50:19;;;;;;;1999.90;999.90;;;;;;;;;;4915727;29;20212;-73
2023/06/04 10:53:05;;;;;;;1999.90;999.90;;;;;;;;;;4915810;29;20208;-73
2023/06/04 10:55:51;;;;;;;1999.90;999.90;;;;;;;;;;4916141;29;20217;-74
2023/06/04 10:58:36;;;;;;;1999.90;999.90;;;;;;;;;;4915929;29;20357;-74
2023/06/04 11:01:24;;;;;;;1999.90;999.90;;;;;;;;;;4915894;29;20255;-73
2023/06/04 11:04:18;;;;;;;1999.90;999.90;;;;;;;;;;4915985;29;20285;-73
2023/06/04 11:07:04;;;;;;;1999.90;999.90;;;;;;;;;;4915955;29;20575;-71
2023/06/04 11:09:51;;;;;;;1999.90;999.90;;;;;;;;;;4915782;29;20211;-73
2023/06/04 11:12:41;;;;;;;1999.90;999.90;;;;;;;;;;4915734;29;20267;-74
2023/06/04 11:15:26;;;;;;;1999.90;999.90;;;;;;;;;;4915875;29;20625;-73
2023/06/04 11:18:14;;;;;;;1999.90;999.90;;;;;;;;;;4915410;29;20229;-73
2023/06/04 11:21:00;;;;;;;1999.90;999.90;;;;;;;;;;4915679;29;20335;-73
2023/06/04 11:23:45;;;;;;;1999.90;999.90;;;;;;;;;;4915529;29;20207;-73
2023/06/04 11:26:33;;;;;;;1999.90;999.90;;;;;;;;;;4915801;29;20588;-74
2023/06/04 11:29:18;;;;;;;1999.90;999.90;;;;;;;;;;4915394;29;20243;-72
2023/06/04 11:32:03;;;;;;;1999.90;999.90;;;;;;;;;;4918183;29;20212;-74
2023/06/04 11:34:48;;;;;;;1999.90;999.90;;;;;;;;;;4919213;29;20415;-73
2023/06/04 11:37:33;;;;;;;1999.90;999.90;;;;;;;;;;4919235;29;20837;-73
2023/06/04 11:40:19;;;;;;;1999.90;999.90;;;;;;;;;;4919151;29;20407;-74
2023/06/04 11:43:06;;;;;;;1999.90;999.90;;;;;;;;;;4919478;29;20209;-73
2023/06/04 11:45:51;;;;;;;1999.90;999.90;;;;;;;;;;4919460;29;20750;-72
2023/06/04 11:48:36;;;;;;;1999.90;999.90;;;;;;;;;;4919058;29;20229;-73
2023/06/04 11:51:21;;;;;;;1999.90;999.90;;;;;;;;;;4919104;29;20213;-73
2023/06/04 11:54:06;;;;;;;1999.90;999.90;;;;;;;;;;4919213;29;20717;-73
2023/06/04 11:56:52;;;;;;;1999.90;999.90;;;;;;;;;;4918955;29;20228;-73
2023/06/04 11:59:38;;;;;;;1999.90;999.90;;;;;;;;;;4919131;29;20357;-73
2023/06/04 12:02:24;;;;;;;1999.90;999.90;;;;;;;;;;4918726;29;20217;-73
2023/06/04 12:05:12;;;;;;;1999.90;999.90;;;;;;;;;;4918964;29;20218;-73
2023/06/04 12:08:05;;;;;;;1999.90;999.90;;;;;;;;;;4918852;29;20644;-73
2023/06/04 12:10:50;;;;;;;1999.90;999.90;;;;;;;;;;4918081;29;20423;-74
2023/06/04 12:13:38;;;;;;;1999.90;999.90;;;;;;;;;;4918939;29;20226;-73
2023/06/04 12:16:24;;;;;;;1999.90;999.90;;;;;;;;;;4918782;29;20603;-73
2023/06/04 12:19:09;;;;;;;1999.90;999.90;;;;;;;;;;4918631;29;20225;-74
2023/06/04 12:22:02;;;;;;;1999.90;999.90;;;;;;;;;;4918642;29;20731;-73
2023/06/04 12:24:48;;;;;;;1999.90;999.90;;;;;;;;;;4918657;29;20230;-73
2023/06/04 12:27:33;;;;;;;1999.90;999.90;;;;;;;;;;4917655;29;20415;-73
2023/06/04 12:30:18;;;;;;;1999.90;999.90;;;;;;;;;;4918510;29;20213;-73
2023/06/04 12:33:05;;;;;;;1999.90;999.90;;;;;;;;;;4918601;29;20217;-73
2023/06/04 12:35:50;;;;;;;1999.90;999.90;;;;;;;;;;4918548;29;20265;-73
2023/06/04 12:38:35;;;;;;;1999.90;999.90;;;;;;;;;;4918218;29;20765;-73
2023/06/04 12:41:20;;;;;;;1999.90;999.90;;;;;;;;;;4918284;29;20216;-73
2023/06/04 12:44:05;;;;;;;1999.90;999.90;;;;;;;;;;4918424;29;20213;-73
2023/06/04 12:46:50;;;;;;;1999.90;999.90;;;;;;;;;;4917986;29;20210;-73
2023/06/04 12:49:37;;;;;;;1999.90;999.90;;;;;;;;;;4918077;29;20308;-73
2023/06/04 12:52:22;;;;;;;1999.90;999.90;;;;;;;;;;4918088;29;20213;-74
2023/06/04 12:55:07;;;;;;;1999.90;999.90;;;;;;;;;;4917836;29;20208;-73
2023/06/04 12:57:53;;;;;;;1999.90;999.90;;;;;;;;;;4917715;29;20372;-73
2023/06/04 13:00:37;;;;;;;1999.90;999.90;;;;;;;;;;4916809;29;20525;-74
2023/06/04 13:03:22;;;;;;;1999.90;999.90;;;;;;;;;;4917983;29;20213;-73
2023/06/04 13:06:08;;;;;;;1999.90;999.90;;;;;;;;;;4917750;29;20254;-73
2023/06/04 13:08:53;;;;;;;1999.90;999.90;;;;;;;;;;4917330;29;20241;-73
2023/06/04 13:11:38;;;;;;;1999.90;999.90;;;;;;;;;;4917643;29;20213;-73
2023/06/04 13:14:23;;;;;;;1999.90;999.90;;;;;;;;;;4917880;29;20209;-74
2023/06/04 13:17:08;;;;;;;1999.90;999.90;;;;;;;;;;4916284;29;20553;-73
2023/06/04 13:19:53;;;;;;;1999.90;999.90;;;;;;;;;;4917599;29;20694;-73
2023/06/04 13:22:40;;;;;;;1999.90;999.90;;;;;;;;;;4917581;29;20579;-73
2023/06/04 13:25:25;;;;;;;1999.90;999.90;;;;;;;;;;4917613;29;20309;-73
2023/06/04 13:28:10;;;;;;;1999.90;999.90;;;;;;;;;;4917414;29;20683;-72
2023/06/04 13:30:54;;;;;;;1999.90;999.90;;;;;;;;;;4917207;29;20220;-73
2023/06/04 13:33:39;;;;;;;1999.90;999.90;;;;;;;;;;4917232;29;20209;-74
2023/06/04 13:36:24;;;;;;;1999.90;999.90;;;;;;;;;;4917477;29;20213;-73
2023/06/04 13:39:10;;;;;;;1999.90;999.90;;;;;;;;;;4916922;29;20245;-72
2023/06/04 13:41:55;;;;;;;1999.90;999.90;;;;;;;;;;4916951;29;20746;-73
2023/06/04 13:44:40;;;;;;;1999.90;999.90;;;;;;;;;;4917294;29;20213;-73
2023/06/04 13:47:25;;;;;;;1999.90;999.90;;;;;;;;;;4916638;29;20419;-75
2023/06/04 13:50:10;;;;;;;1999.90;999.90;;;;;;;;;;4917081;29;20258;-72
2023/06/04 13:52:56;;;;;;;1999.90;999.90;;;;;;;;;;4917134;29;20413;-75
2023/06/04 13:55:42;;;;;;;1999.90;999.90;;;;;;;;;;4916794;29;20594;-75
2023/06/04 13:58:27;;;;;;;1999.90;999.90;;;;;;;;;;4916525;29;20237;-75
2023/06/04 14:01:12;;;;;;;1999.90;999.90;;;;;;;;;;4916886;29;20221;-73
2023/06/04 14:03:58;;;;;;;1999.90;999.90;;;;;;;;;;4916073;29;20516;-75
2023/06/04 14:06:43;;;;;;;1999.90;999.90;;;;;;;;;;4916828;29;20634;-75
2023/06/04 14:09:28;;;;;;;1999.90;999.90;;;;;;;;;;4916563;29;20606;-75
2023/06/04 14:12:17;;;;;;;1999.90;999.90;;;;;;;;;;4916604;29;20218;-75
2023/06/04 14:15:02;;;;;;;1999.90;999.90;;;;;;;;;;4916912;29;20286;-75
2023/06/04 14:17:48;;;;;;;1999.90;999.90;;;;;;;;;;4916448;29;20610;-75
2023/06/04 14:20:33;;;;;;;1999.90;999.90;;;;;;;;;;4916523;29;20209;-75
2023/06/04 14:23:18;;;;;;;1999.90;999.90;;;;;;;;;;4916584;29;20603;-75
2023/06/04 14:26:03;;;;;;;1999.90;999.90;;;;;;;;;;4916585;29;20209;-74
2023/06/04 14:28:49;;;;;;;1999.90;999.90;;;;;;;;;;4916233;29;20354;-75
2023/06/04 14:31:34;;;;;;;1999.90;999.90;;;;;;;;;;4916343;29;20206;-75
2023/06/04 14:34:19;;;;;;;1999.90;999.90;;;;;;;;;;4916408;29;20210;-75
2023/06/04 14:37:04;;;;;;;1999.90;999.90;;;;;;;;;;4914876;29;20461;-74
2023/06/04 14:39:49;;;;;;;1999.90;999.90;;;;;;;;;;4916213;29;20202;-74
2023/06/04 14:42:34;;;;;;;1999.90;999.90;;;;;;;;;;4916135;29;20209;-75
2023/06/04 14:45:21;;;;;;;1999.90;999.90;;;;;;;;;;4916244;29;20702;-74
2023/06/04 14:48:06;;;;;;;1999.90;999.90;;;;;;;;;;4916107;29;20266;-74
2023/06/04 14:50:53;;;;;;;1999.90;999.90;;;;;;;;;;4916061;29;20214;-76
2023/06/04 14:53:39;;;;;;;1999.90;999.90;;;;;;;;;;4916106;29;20209;-74
2023/06/04 14:56:26;;;;;;;1999.90;999.90;;;;;;;;;;4916205;29;20751;-74
2023/06/04 14:59:12;;;;;;;1999.90;999.90;;;;;;;;;;4915871;29;20269;-75
2023/06/04 15:01:58;;;;;;;1999.90;999.90;;;;;;;;;;4915617;29;20578;-74
2023/06/04 15:04:44;;;;;;;1999.90;999.90;;;;;;;;;;4915847;29;20224;-74
2023/06/04 15:07:29;;;;;;;1999.90;999.90;;;;;;;;;;4915385;29;20209;-75
2023/06/04 15:10:14;;;;;;;1999.90;999.90;;;;;;;;;;4915805;29;20213;-74
2023/06/04 15:12:59;;;;;;;1999.90;999.90;;;;;;;;;;4915895;29;20336;-74
2023/06/04 15:15:43;;;;;;;1999.90;999.90;;;;;;;;;;4915870;29;20217;-74
2023/06/04 15:18:30;;;;;;;1999.90;999.90;;;;;;;;;;4915390;29;20292;-73
2023/06/04 15:21:15;;;;;;;1999.90;999.90;;;;;;;;;;4915680;29;20209;-73
2023/06/04 15:23:59;;;;;;;1999.90;999.90;;;;;;;;;;4915803;29;20213;-74
2023/06/04 15:26:46;;;;;;;1999.90;999.90;;;;;;;;;;4914417;29;20472;-74
2023/06/04 15:29:31;;;;;;;1999.90;999.90;;;;;;;;;;4915814;29;20368;-74
2023/06/04 15:32:15;;;;;;;1999.90;999.90;;;;;;;;;;4915580;29;20680;-74
2023/06/04 15:35:02;;;;;;;1999.90;999.90;;;;;;;;;;4915700;29;20214;-74
2023/06/04 15:37:47;;;;;;;1999.90;999.90;;;;;;;;;;4915309;29;20244;-75
2023/06/04 15:40:32;;;;;;;1999.90;999.90;;;;;;;;;;4915410;29;20209;-74
2023/06/04 15:43:17;;;;;;;1999.90;999.90;;;;;;;;;;4915560;29;20217;-74
2023/06/04 15:46:01;;;;;;;1999.90;999.90;;;;;;;;;;4915524;29;20261;-74
2023/06/04 15:48:46;;;;;;;1999.90;999.90;;;;;;;;;;4915342;29;20225;-74
2023/06/04 15:51:33;;;;;;;1999.90;999.90;;;;;;;;;;4915321;29;20216;-73
2023/06/04 15:54:17;;;;;;;1999.90;999.90;;;;;;;;;;4915219;29;20208;-74
2023/06/04 15:57:03;;;;;;;1999.90;999.90;;;;;;;;;;4915328;29;20248;-73
2023/06/04 15:59:47;;;;;;;1999.90;999.90;;;;;;;;;;4915391;29;20208;-74
2023/06/04 16:02:32;;;;;;;1999.90;999.90;;;;;;;;;;4915318;29;20598;-74
2023/06/04 16:05:17;;;;;;;1999.90;999.90;;;;;;;;;;4915191;29;20212;-74
2023/06/04 16:08:03;;;;;;;1999.90;999.90;;;;;;;;;;4915156;29;20742;-75
2023/06/04 16:10:49;;;;;;;1999.90;999.90;;;;;;;;;;4915182;29;20204;-74
2023/06/04 16:13:34;;;;;;;1999.90;999.90;;;;;;;;;;4915376;29;20217;-74
2023/06/04 16:16:19;;;;;;;1999.90;999.90;;;;;;;;;;4915113;29;20232;-74
2023/06/04 16:19:04;;;;;;;1999.90;999.90;;;;;;;;;;4918350;29;20236;-76
2023/06/04 16:21:49;;;;;;;1999.90;999.90;;;;;;;;;;4918634;29;20710;-74
2023/06/04 16:24:35;;;;;;;1999.90;999.90;;;;;;;;;;4918789;29;20803;-73
2023/06/04 16:27:20;;;;;;;1999.90;999.90;;;;;;;;;;4922900;29;20217;-74
2023/06/04 16:30:05;;;;;;;1999.90;999.90;;;;;;;;;;4926601;29;20345;-74
2023/06/04 16:32:50;;;;;;;1999.90;999.90;;;;;;;;;;4937468;29;20219;-73
2023/06/04 16:35:35;;;;;;;1999.90;999.90;;;;;;;;;;4905865;29;20301;-73
2023/06/04 16:38:20;;;;;;;1999.90;999.90;;;;;;;;;;4937040;29;20230;-72
2023/06/04 16:41:06;;;;;;;1999.90;999.90;;;;;;;;;;4920733;29;20576;-73
2023/06/04 16:43:51;;;;;;;1999.90;999.90;;;;;;;;;;4928171;29;20471;-73
2023/06/04 16:46:36;;;;;;;1999.90;999.90;;;;;;;;;;4920208;29;20220;-75
2023/06/04 16:49:22;;;;;;;1999.90;999.90;;;;;;;;;;4920531;29;20395;-75
2023/06/04 16:52:07;;;;;;;1999.90;999.90;;;;;;;;;;4932230;29;20219;-73
2023/06/04 16:54:54;;;;;;;1999.90;999.90;;;;;;;;;;4927652;29;20215;-72
2023/06/04 16:57:40;;;;;;;1999.90;999.90;;;;;;;;;;4926181;29;20245;-75
2023/06/04 17:00:25;;;;;;;1999.90;999.90;;;;;;;;;;4929150;29;20212;-73
2023/06/04 17:03:10;;;;;;;1999.90;999.90;;;;;;;;;;4921375;29;20518;-73
2023/06/04 17:05:55;;;;;;;1999.90;999.90;;;;;;;;;;4927338;29;20236;-73
2023/06/04 17:08:40;;;;;;;1999.90;999.90;;;;;;;;;;4932572;29;20243;-74
2023/06/04 17:11:25;;;;;;;1999.90;999.90;;;;;;;;;;4932618;29;20709;-74
2023/06/04 17:14:12;;;;;;;1999.90;999.90;;;;;;;;;;4929980;29;20212;-74
2023/06/04 17:16:57;;;;;;;1999.90;999.90;;;;;;;;;;4929526;29;20252;-73
2023/06/04 17:19:43;;;;;;;1999.90;999.90;;;;;;;;;;4934034;29;20235;-74
2023/06/04 17:22:28;;;;;;;1999.90;999.90;;;;;;;;;;4922098;29;20475;-74
2023/06/04 17:25:13;;;;;;;1999.90;999.90;;;;;;;;;;4934153;29;20592;-73
2023/06/04 17:27:58;;;;;;;1999.90;999.90;;;;;;;;;;4928706;29;20233;-75
2023/06/04 17:30:45;;;;;;;1999.90;999.90;;;;;;;;;;4933841;29;20352;-73
2023/06/04 17:33:30;;;;;;;1999.90;999.90;;;;;;;;;;4934366;29;20212;-73
2023/06/04 17:36:15;;;;;;;1999.90;999.90;;;;;;;;;;4934043;29;20746;-74
2023/06/04 17:38:59;;;;;;;1999.90;999.90;;;;;;;;;;4931154;29;20305;-74
2023/06/04 17:41:44;;;;;;;1999.90;999.90;;;;;;;;;;4928790;29;20338;-73
2023/06/04 17:44:29;;;;;;;1999.90;999.90;;;;;;;;;;4928429;29;20747;-73
2023/06/04 17:47:15;;;;;;;1999.90;999.90;;;;;;;;;;4927306;29;20227;-73
2023/06/04 17:50:06;;;;;;;1999.90;999.90;;;;;;;;;;4930210;29;20214;-73
2023/06/04 17:52:51;;;;;;;1999.90;999.90;;;;;;;;;;4929238;29;20219;-73
2023/06/04 17:55:35;;;;;;;1999.90;999.90;;;;;;;;;;4903776;29;20215;-73
2023/06/04 17:58:21;;;;;;;1999.90;999.90;;;;;;;;;;4907148;29;20281;-73
2023/06/04 18:01:05;;;;;;;1999.90;999.90;;;;;;;;;;4913068;29;20330;-72
2023/06/04 18:03:52;;;;;;;1999.90;999.90;;;;;;;;;;4935196;29;20220;-74
2023/06/04 18:06:37;;;;;;;1999.90;999.90;;;;;;;;;;4918982;29;20580;-73
2023/06/04 18:09:21;;;;;;;1999.90;999.90;;;;;;;;;;4934185;29;20375;-74
2023/06/04 18:12:10;;;;;;;1999.90;999.90;;;;;;;;;;4912901;29;20218;-75
2023/06/04 18:14:55;;;;;;;1999.90;999.90;;;;;;;;;;4921259;29;20210;-72
2023/06/04 18:17:40;;;;;;;1999.90;999.90;;;;;;;;;;4911730;29;20225;-73
2023/06/04 18:20:26;;;;;;;1999.90;999.90;;;;;;;;;;4916841;29;20848;-74
2023/06/04 18:23:12;;;;;;;1999.90;999.90;;;;;;;;;;4927878;29;20209;-74
2023/06/04 18:25:59;;;;;;;1999.90;999.90;;;;;;;;;;4902191;29;20208;-72
2023/06/04 18:28:43;;;;;;;1999.90;999.90;;;;;;;;;;4909178;29;20222;-74
2023/06/04 18:31:28;;;;;;;1999.90;999.90;;;;;;;;;;4920092;29;20343;-72